Impacts TAF Board INFO
FOR SITUATIONAL AWARENESS. NOT TO BE USED FOR FLIGHT PLANNING PURPOSES.
IDs:

KBOS - Boston/Logan Intl, MA, US

Issued at 2320 UTC 16 Aug 2018
Updated at 0521 UTC 17 Aug 2018
Potential Impact None Slight Moderate High
Time<<18/06Z 18/07Z 18/08Z 18/09Z 18/10Z 18/11Z 18/12Z 18/13Z 18/14Z 18/15Z 18/16Z 18/17Z 18/18Z
Type
VIS
CIG
Cover
FltCat
WX
WDir
WSpd
WGst

Raw TAF
KBOS 162320Z 1700/1806 36008KT P6SM FEW045 FEW070
  FM171000 03004KT P6SM FEW035
  FM171300 07004KT P6SM FEW050
  FM171500 11006KT P6SM VCSH BKN045
  FM172000 14007KT P6SM VCSH BKN040
  FM172100 15007KT P6SM BKN040


METAR Board
Radar Display
Forecast Discussion

FOR SITUATIONAL AWARENESS. NOT TO BE USED FOR FLIGHT PLANNING PURPOSES.